Time;durP1;ratioP1;P1;durP2;ratioP2;P2;SDS_P1;SDS_P2;PMS_P1;PMS_P2;Temp;Humidity;BMP_temperature;BMP_pressure;BME280_temperature;BME280_humidity;BME280_pressure;Samples;Min_cycle;Max_cycle;Signal;HPM_P1;HPM_P2
2022/06/20 00:00:38;;;;;;;12.43;4.93;;;;;;;;;;5016575;28;20037;-78
2022/06/20 00:03:05;;;;;;;13.70;4.50;;;;;;;;;;5009001;28;20104;-78
2022/06/20 00:05:32;;;;;;;6.95;4.25;;;;;;;;;;5023133;28;20033;-78
2022/06/20 00:07:58;;;;;;;10.00;4.63;;;;;;;;;;5028977;28;20390;-78
2022/06/20 00:10:25;;;;;;;11.27;4.85;;;;;;;;;;5014236;28;20037;-79
2022/06/20 00:12:52;;;;;;;8.88;4.25;;;;;;;;;;5010659;28;20055;-78
2022/06/20 00:15:24;;;;;;;10.15;4.38;;;;;;;;;;5021937;28;20104;-78
2022/06/20 00:17:50;;;;;;;11.32;5.30;;;;;;;;;;5023022;28;20111;-79
2022/06/20 00:20:16;;;;;;;9.75;4.75;;;;;;;;;;5026878;28;20033;-78
2022/06/20 00:22:42;;;;;;;9.25;3.88;;;;;;;;;;5029538;28;20035;-78
2022/06/20 00:25:09;;;;;;;13.75;5.07;;;;;;;;;;5021094;28;20056;-78
2022/06/20 00:27:35;;;;;;;13.07;4.97;;;;;;;;;;5027450;28;20065;-79
2022/06/20 00:30:01;;;;;;;8.60;3.83;;;;;;;;;;5031204;28;20044;-78
2022/06/20 00:32:27;;;;;;;10.80;4.50;;;;;;;;;;5032600;28;20128;-78
2022/06/20 00:34:53;;;;;;;13.07;4.82;;;;;;;;;;5032320;28;20108;-79
2022/06/20 00:37:20;;;;;;;12.45;4.35;;;;;;;;;;5032193;28;20507;-79
2022/06/20 00:39:47;;;;;;;11.13;4.78;;;;;;;;;;5014080;28;20633;-78
2022/06/20 00:42:13;;;;;;;12.40;4.75;;;;;;;;;;5027067;28;20044;-79
2022/06/20 00:44:42;;;;;;;10.18;4.10;;;;;;;;;;5031181;28;20044;-77
2022/06/20 00:47:11;;;;;;;12.20;3.97;;;;;;;;;;5025380;28;20383;-78
2022/06/20 00:49:40;;;;;;;12.40;3.92;;;;;;;;;;5012293;28;20033;-79
2022/06/20 00:52:22;;;;;;;12.85;4.60;;;;;;;;;;5022499;28;20188;-78
2022/06/20 00:55:03;;;;;;;11.20;4.43;;;;;;;;;;5024215;28;20474;-78
2022/06/20 00:57:34;;;;;;;10.23;5.18;;;;;;;;;;5032014;28;20021;-78
2022/06/20 01:00:12;;;;;;;12.30;4.95;;;;;;;;;;5029721;28;20443;-78
2022/06/20 01:02:40;;;;;;;14.52;5.05;;;;;;;;;;5015323;28;20376;-78
2022/06/20 01:05:10;;;;;;;11.82;4.55;;;;;;;;;;5017299;28;20049;-78
2022/06/20 01:07:41;;;;;;;9.68;4.70;;;;;;;;;;5028549;28;20026;-78
2022/06/20 01:10:10;;;;;;;8.85;4.28;;;;;;;;;;5011746;28;20860;-78
2022/06/20 01:12:41;;;;;;;9.50;4.15;;;;;;;;;;5015537;28;20028;-78
2022/06/20 01:15:23;;;;;;;11.60;4.35;;;;;;;;;;5018604;28;20033;-78
2022/06/20 01:17:50;;;;;;;11.38;4.47;;;;;;;;;;5022987;28;20036;-78
2022/06/20 01:20:17;;;;;;;11.35;5.05;;;;;;;;;;5012694;28;20677;-78
2022/06/20 01:22:55;;;;;;;12.70;4.60;;;;;;;;;;5011701;28;20084;-78
2022/06/20 01:25:42;;;;;;;12.65;5.25;;;;;;;;;;5018667;28;20656;-78
2022/06/20 01:28:10;;;;;;;10.60;4.30;;;;;;;;;;5019581;28;20483;-78
2022/06/20 01:30:40;;;;;;;14.13;4.03;;;;;;;;;;5023696;28;20104;-78
2022/06/20 01:33:06;;;;;;;8.70;3.55;;;;;;;;;;5011045;28;20032;-78
2022/06/20 01:38:19;;;;;;;8.43;3.78;;;;;;;;;;5031037;28;20088;-78
2022/06/20 01:43:34;;;;;;;10.00;4.18;;;;;;;;;;5011519;28;20440;-79
2022/06/20 01:46:01;;;;;;;11.38;3.95;;;;;;;;;;5010482;28;20072;-79
2022/06/20 01:48:30;;;;;;;8.95;4.35;;;;;;;;;;5011075;28;20514;-80
2022/06/20 01:50:56;;;;;;;9.55;3.50;;;;;;;;;;5014121;28;20026;-79
2022/06/20 01:53:24;;;;;;;12.60;3.90;;;;;;;;;;5030704;28;20116;-79
2022/06/20 01:55:53;;;;;;;7.55;4.55;;;;;;;;;;5014120;28;20526;-79
2022/06/20 01:58:22;;;;;;;12.43;4.53;;;;;;;;;;5010745;28;20053;-79
2022/06/20 02:00:48;;;;;;;16.00;5.57;;;;;;;;;;5010859;28;20026;-80
2022/06/20 02:03:17;;;;;;;8.90;4.95;;;;;;;;;;5014876;28;20058;-79
2022/06/20 02:05:44;;;;;;;12.52;5.90;;;;;;;;;;5014863;28;20602;-79
2022/06/20 02:08:10;;;;;;;16.27;5.32;;;;;;;;;;5012359;28;20160;-79
2022/06/20 02:10:42;;;;;;;11.15;4.97;;;;;;;;;;5021489;28;20468;-79
2022/06/20 02:13:09;;;;;;;15.13;5.43;;;;;;;;;;5020838;28;20030;-80
2022/06/20 02:15:35;;;;;;;13.15;5.55;;;;;;;;;;5013859;28;20029;-79
2022/06/20 02:18:02;;;;;;;14.15;5.13;;;;;;;;;;5009918;28;20022;-80
2022/06/20 02:20:31;;;;;;;9.77;4.53;;;;;;;;;;5016695;28;20026;-79
2022/06/20 02:22:57;;;;;;;9.70;4.15;;;;;;;;;;5018295;28;20042;-79
2022/06/20 02:25:31;;;;;;;13.18;4.53;;;;;;;;;;5012038;28;20073;-80
2022/06/20 02:28:04;;;;;;;10.95;4.55;;;;;;;;;;5022100;28;20372;-79
2022/06/20 02:30:30;;;;;;;11.80;4.78;;;;;;;;;;5027627;28;20080;-79
2022/06/20 02:33:00;;;;;;;9.32;4.50;;;;;;;;;;5019269;28;20055;-79
2022/06/20 02:35:27;;;;;;;11.57;4.90;;;;;;;;;;5017008;28;20034;-79
2022/06/20 02:37:53;;;;;;;11.98;4.05;;;;;;;;;;5018000;28;20044;-79
2022/06/20 02:40:20;;;;;;;11.88;4.65;;;;;;;;;;5020951;28;20046;-79
2022/06/20 02:42:55;;;;;;;8.25;3.78;;;;;;;;;;5015229;28;20025;-79
2022/06/20 02:45:22;;;;;;;14.50;4.55;;;;;;;;;;5013438;28;20530;-79
2022/06/20 02:47:50;;;;;;;12.15;4.70;;;;;;;;;;5013443;28;20029;-79
2022/06/20 02:50:18;;;;;;;8.88;4.57;;;;;;;;;;5029976;28;20037;-79
2022/06/20 02:52:47;;;;;;;12.80;4.90;;;;;;;;;;5026920;28;20044;-79
2022/06/20 02:55:16;;;;;;;10.75;5.15;;;;;;;;;;5018994;28;20037;-79
2022/06/20 02:57:52;;;;;;;9.75;4.40;;;;;;;;;;5011472;28;20021;-79
2022/06/20 03:00:20;;;;;;;11.60;4.65;;;;;;;;;;5010465;28;20100;-79
2022/06/20 03:02:48;;;;;;;7.53;4.55;;;;;;;;;;5009531;28;20444;-79
2022/06/20 03:05:15;;;;;;;10.02;5.03;;;;;;;;;;5011432;28;20045;-79
2022/06/20 03:07:41;;;;;;;13.70;4.93;;;;;;;;;;5029490;28;20029;-79
2022/06/20 03:10:15;;;;;;;15.45;5.55;;;;;;;;;;5012457;28;20037;-79
2022/06/20 03:12:41;;;;;;;14.32;4.78;;;;;;;;;;5009915;28;20092;-79
2022/06/20 03:15:07;;;;;;;11.60;5.45;;;;;;;;;;5009143;28;20130;-79
2022/06/20 03:17:33;;;;;;;12.02;4.47;;;;;;;;;;5009580;28;20109;-79
2022/06/20 03:20:02;;;;;;;9.27;4.88;;;;;;;;;;5009026;28;20113;-79
2022/06/20 03:22:33;;;;;;;8.30;3.88;;;;;;;;;;5009540;28;20080;-80
2022/06/20 03:25:00;;;;;;;12.82;5.07;;;;;;;;;;5009261;28;20034;-79
2022/06/20 03:27:28;;;;;;;12.57;5.13;;;;;;;;;;5009741;28;20038;-79
2022/06/20 03:29:55;;;;;;;16.30;5.60;;;;;;;;;;5017901;28;20042;-79
2022/06/20 03:32:23;;;;;;;13.52;5.00;;;;;;;;;;5009402;28;20026;-79
2022/06/20 03:34:49;;;;;;;10.98;5.50;;;;;;;;;;5016180;28;20041;-79
2022/06/20 03:37:15;;;;;;;10.80;4.93;;;;;;;;;;5009506;28;20108;-79
2022/06/20 03:39:41;;;;;;;12.63;5.93;;;;;;;;;;5013827;28;20069;-79
2022/06/20 03:42:07;;;;;;;9.88;4.55;;;;;;;;;;5009612;28;20033;-79
2022/06/20 03:44:36;;;;;;;14.95;5.50;;;;;;;;;;5009310;28;20042;-79
2022/06/20 03:47:12;;;;;;;11.18;4.63;;;;;;;;;;5009812;28;20425;-79
2022/06/20 03:49:41;;;;;;;8.30;5.10;;;;;;;;;;5012951;28;20040;-79
2022/06/20 03:52:16;;;;;;;9.50;4.57;;;;;;;;;;5016108;28;20028;-79
2022/06/20 03:54:45;;;;;;;13.13;5.75;;;;;;;;;;5031191;28;20034;-79
2022/06/20 03:57:15;;;;;;;11.63;5.47;;;;;;;;;;5013375;28;20034;-80
2022/06/20 03:59:43;;;;;;;15.73;5.80;;;;;;;;;;5022646;28;20034;-79
2022/06/20 04:02:22;;;;;;;10.77;5.60;;;;;;;;;;5012983;28;20037;-79
2022/06/20 04:04:48;;;;;;;14.30;5.85;;;;;;;;;;5012195;28;20128;-79
2022/06/20 04:07:34;;;;;;;15.57;5.28;;;;;;;;;;5016572;28;20554;-79
2022/06/20 04:12:58;;;;;;;9.57;5.18;;;;;;;;;;5012929;28;20085;-79
2022/06/20 04:15:26;;;;;;;14.88;5.40;;;;;;;;;;5012052;28;20034;-79
2022/06/20 04:20:53;;;;;;;13.95;5.55;;;;;;;;;;5031436;28;20068;-79
2022/06/20 04:23:23;;;;;;;14.40;5.40;;;;;;;;;;5015138;28;20044;-79
2022/06/20 04:26:07;;;;;;;12.68;5.20;;;;;;;;;;5022081;28;20069;-79
2022/06/20 04:28:41;;;;;;;14.65;4.95;;;;;;;;;;5013587;28;20041;-79
2022/06/20 04:31:25;;;;;;;15.05;6.03;;;;;;;;;;5012331;28;20482;-79
2022/06/20 04:33:54;;;;;;;12.38;5.00;;;;;;;;;;5012129;28;20037;-79
2022/06/20 04:36:32;;;;;;;13.13;5.00;;;;;;;;;;5015976;28;20022;-79
2022/06/20 04:39:19;;;;;;;13.13;4.75;;;;;;;;;;5013882;28;20682;-79
2022/06/20 04:41:49;;;;;;;13.43;5.63;;;;;;;;;;5006695;28;20052;-79
2022/06/20 04:44:21;;;;;;;14.15;5.93;;;;;;;;;;5014190;28;20052;-79
2022/06/20 04:46:58;;;;;;;11.38;4.90;;;;;;;;;;5030908;28;20026;-79
2022/06/20 04:49:24;;;;;;;12.77;4.95;;;;;;;;;;5024077;28;20528;-79
2022/06/20 04:51:50;;;;;;;9.13;4.63;;;;;;;;;;5012460;28;20044;-78
2022/06/20 04:54:19;;;;;;;13.68;5.00;;;;;;;;;;5013834;28;20041;-78
2022/06/20 04:56:45;;;;;;;14.85;5.03;;;;;;;;;;5011017;28;20041;-78
2022/06/20 04:59:14;;;;;;;8.10;5.20;;;;;;;;;;5010703;28;20041;-78
2022/06/20 05:01:40;;;;;;;16.15;5.20;;;;;;;;;;5027186;28;20026;-78
2022/06/20 05:04:27;;;;;;;14.00;5.40;;;;;;;;;;5017845;28;20061;-78
2022/06/20 05:06:54;;;;;;;12.95;4.90;;;;;;;;;;5012027;28;21011;-78
2022/06/20 05:09:38;;;;;;;13.93;5.03;;;;;;;;;;5018758;28;20052;-78
2022/06/20 05:12:07;;;;;;;12.70;5.68;;;;;;;;;;5013837;28;20029;-77
2022/06/20 05:14:52;;;;;;;13.20;5.13;;;;;;;;;;5010870;28;20042;-77
2022/06/20 05:17:23;;;;;;;15.40;5.18;;;;;;;;;;5014856;28;20113;-77
2022/06/20 05:19:51;;;;;;;14.13;5.60;;;;;;;;;;5015122;28;20455;-77
2022/06/20 05:22:19;;;;;;;12.38;5.90;;;;;;;;;;5019035;28;20286;-78
2022/06/20 05:24:46;;;;;;;12.20;4.88;;;;;;;;;;5027688;28;20053;-78
2022/06/20 05:27:20;;;;;;;12.77;5.65;;;;;;;;;;5021298;28;20030;-78
2022/06/20 05:29:47;;;;;;;13.30;5.97;;;;;;;;;;5020008;28;20044;-78
2022/06/20 05:32:15;;;;;;;11.73;5.63;;;;;;;;;;5015596;28;20026;-78
2022/06/20 05:34:45;;;;;;;14.52;5.47;;;;;;;;;;5016249;28;20527;-77
2022/06/20 05:37:20;;;;;;;11.93;5.00;;;;;;;;;;5022541;28;20501;-77
2022/06/20 05:39:55;;;;;;;12.40;5.20;;;;;;;;;;5017108;28;20033;-79
2022/06/20 05:42:21;;;;;;;9.55;5.00;;;;;;;;;;5021088;28;20034;-77
2022/06/20 05:44:47;;;;;;;14.15;5.28;;;;;;;;;;5014926;28;20111;-78
2022/06/20 05:47:20;;;;;;;10.93;5.28;;;;;;;;;;5014119;28;20041;-78
2022/06/20 05:49:49;;;;;;;10.07;5.10;;;;;;;;;;5009753;28;20040;-77
2022/06/20 05:52:19;;;;;;;15.02;5.70;;;;;;;;;;5013258;28;20022;-77
2022/06/20 05:54:49;;;;;;;14.55;5.57;;;;;;;;;;5011155;28;20043;-77
2022/06/20 05:57:17;;;;;;;11.68;5.15;;;;;;;;;;5012792;28;20034;-79
2022/06/20 05:59:45;;;;;;;18.80;6.30;;;;;;;;;;5018233;28;20033;-79
2022/06/20 06:02:29;;;;;;;10.85;5.10;;;;;;;;;;5016110;28;20592;-78
2022/06/20 06:05:03;;;;;;;17.38;6.00;;;;;;;;;;5013910;28;20081;-79
2022/06/20 06:07:34;;;;;;;13.50;5.63;;;;;;;;;;5014078;28;20036;-77
2022/06/20 06:10:04;;;;;;;18.67;5.55;;;;;;;;;;5014289;28;20037;-78
2022/06/20 06:12:42;;;;;;;16.30;6.25;;;;;;;;;;5015383;28;20068;-79
2022/06/20 06:15:16;;;;;;;14.90;6.22;;;;;;;;;;5017102;28;20052;-78
2022/06/20 06:17:45;;;;;;;13.23;7.28;;;;;;;;;;5018528;28;20088;-78
2022/06/20 06:20:17;;;;;;;20.45;5.90;;;;;;;;;;5016280;28;20121;-78
2022/06/20 06:22:44;;;;;;;15.45;5.80;;;;;;;;;;5014355;28;20061;-78
2022/06/20 06:25:19;;;;;;;12.88;5.78;;;;;;;;;;5015450;28;20038;-79
2022/06/20 06:27:47;;;;;;;14.90;5.72;;;;;;;;;;5024731;28;20112;-78
2022/06/20 06:30:17;;;;;;;11.68;5.65;;;;;;;;;;5017627;28;20092;-77
2022/06/20 06:32:45;;;;;;;16.80;6.07;;;;;;;;;;5015549;28;20607;-77
2022/06/20 06:35:20;;;;;;;14.43;6.00;;;;;;;;;;5017813;28;20069;-76
2022/06/20 06:37:51;;;;;;;12.15;6.28;;;;;;;;;;5014992;28;20022;-76
2022/06/20 06:40:32;;;;;;;17.20;6.30;;;;;;;;;;5016724;28;20048;-76
2022/06/20 06:42:59;;;;;;;16.52;5.43;;;;;;;;;;5014374;28;20034;-77
2022/06/20 06:45:26;;;;;;;14.50;5.85;;;;;;;;;;5023525;28;20038;-77
2022/06/20 06:47:56;;;;;;;14.95;6.03;;;;;;;;;;5015002;28;20104;-77
2022/06/20 06:50:31;;;;;;;14.68;6.20;;;;;;;;;;5019112;28;20045;-77
2022/06/20 06:53:00;;;;;;;14.50;5.90;;;;;;;;;;5012095;28;20459;-77
2022/06/20 06:55:33;;;;;;;10.93;5.28;;;;;;;;;;5016894;28;20112;-77
2022/06/20 06:58:15;;;;;;;13.85;5.68;;;;;;;;;;5009866;28;20777;-77
2022/06/20 07:00:44;;;;;;;16.15;6.28;;;;;;;;;;5009305;28;20033;-77
2022/06/20 07:03:20;;;;;;;22.50;6.53;;;;;;;;;;5020240;28;20060;-77
2022/06/20 07:05:52;;;;;;;13.48;5.50;;;;;;;;;;5024431;28;20041;-77
2022/06/20 07:08:22;;;;;;;14.38;5.55;;;;;;;;;;5024640;28;20045;-77
2022/06/20 07:10:48;;;;;;;14.10;5.70;;;;;;;;;;5022206;28;20201;-75
2022/06/20 07:13:21;;;;;;;10.00;5.35;;;;;;;;;;5012015;28;20402;-75
2022/06/20 07:15:49;;;;;;;14.20;5.28;;;;;;;;;;5018210;28;20068;-75
2022/06/20 07:18:37;;;;;;;14.75;5.75;;;;;;;;;;5018494;28;20034;-75
2022/06/20 07:21:04;;;;;;;13.27;5.13;;;;;;;;;;5017689;28;20041;-75
2022/06/20 07:23:30;;;;;;;17.13;4.95;;;;;;;;;;5019612;28;20061;-76
2022/06/20 07:25:57;;;;;;;11.95;4.97;;;;;;;;;;5022600;28;20021;-76
2022/06/20 07:28:23;;;;;;;21.30;5.53;;;;;;;;;;5023842;28;20037;-76
2022/06/20 07:30:53;;;;;;;17.77;5.90;;;;;;;;;;5059415;23;20406;-76
2022/06/20 07:33:38;;;;;;;12.63;5.22;;;;;;;;;;5045024;28;20138;-76
2022/06/20 07:36:07;;;;;;;14.88;5.63;;;;;;;;;;5039276;28;20028;-76
2022/06/20 07:38:39;;;;;;;13.93;4.97;;;;;;;;;;5045217;28;20383;-76
2022/06/20 07:41:13;;;;;;;12.00;5.07;;;;;;;;;;5039549;28;20033;-77
2022/06/20 07:43:42;;;;;;;18.55;5.40;;;;;;;;;;5038892;28;20044;-76
2022/06/20 07:46:12;;;;;;;15.88;5.75;;;;;;;;;;5038104;28;20075;-76
2022/06/20 07:48:39;;;;;;;15.52;6.03;;;;;;;;;;5042220;28;20500;-76
2022/06/20 07:51:14;;;;;;;17.55;5.45;;;;;;;;;;5040627;28;20061;-76
2022/06/20 07:53:43;;;;;;;15.00;4.82;;;;;;;;;;5041913;28;20064;-76
2022/06/20 07:56:15;;;;;;;15.70;4.63;;;;;;;;;;5047889;28;20104;-76
2022/06/20 07:58:46;;;;;;;12.93;4.60;;;;;;;;;;5042667;28;20037;-76
2022/06/20 08:01:19;;;;;;;11.00;4.30;;;;;;;;;;5038651;28;20056;-76
2022/06/20 08:03:51;;;;;;;10.30;3.72;;;;;;;;;;5039750;28;20041;-76
2022/06/20 08:06:16;;;;;;;;;;;;;;;;;;5043091;28;20041;-76
2022/06/20 08:08:57;;;;;;;17.15;4.80;;;;;;;;;;5044815;28;19916;-76
2022/06/20 08:11:44;;;;;;;17.50;4.55;;;;;;;;;;5042285;28;20776;-76
2022/06/20 08:14:25;;;;;;;17.38;4.78;;;;;;;;;;5038894;28;20040;-75
2022/06/20 08:16:53;;;;;;;13.73;4.30;;;;;;;;;;5039599;28;20033;-76
2022/06/20 08:19:19;;;;;;;18.92;4.20;;;;;;;;;;5044797;28;20041;-76
2022/06/20 08:21:47;;;;;;;13.95;3.80;;;;;;;;;;5049489;28;20478;-76
2022/06/20 08:24:18;;;;;;;9.52;4.15;;;;;;;;;;5047415;28;20052;-76
2022/06/20 08:26:47;;;;;;;13.87;4.80;;;;;;;;;;5041073;28;20057;-76
2022/06/20 08:29:17;;;;;;;19.60;4.20;;;;;;;;;;5040846;28;20298;-75
2022/06/20 08:31:52;;;;;;;11.70;4.30;;;;;;;;;;5039694;28;20029;-76
2022/06/20 08:34:18;;;;;;;13.65;4.55;;;;;;;;;;5041334;28;20030;-76
2022/06/20 08:36:47;;;;;;;16.15;4.75;;;;;;;;;;5040379;28;20087;-76
2022/06/20 08:39:28;;;;;;;15.35;4.32;;;;;;;;;;5039230;28;20358;-76
2022/06/20 08:42:12;;;;;;;12.15;3.90;;;;;;;;;;5039640;28;20029;-76
2022/06/20 08:44:38;;;;;;;11.75;4.32;;;;;;;;;;5044840;28;20028;-76
2022/06/20 08:47:06;;;;;;;15.07;4.53;;;;;;;;;;5022469;28;20068;-76
2022/06/20 08:49:47;;;;;;;10.13;4.15;;;;;;;;;;5025053;28;20037;-75
2022/06/20 08:52:32;;;;;;;10.30;4.05;;;;;;;;;;5027909;28;20061;-76
2022/06/20 08:54:58;;;;;;;11.43;4.50;;;;;;;;;;5030408;28;20044;-76
2022/06/20 08:57:34;;;;;;;12.65;3.78;;;;;;;;;;5024656;28;20033;-76
2022/06/20 09:00:00;;;;;;;14.90;4.75;;;;;;;;;;5028517;28;20038;-76
2022/06/20 09:02:45;;;;;;;12.05;4.38;;;;;;;;;;5022792;28;20037;-76
2022/06/20 09:05:14;;;;;;;11.07;3.60;;;;;;;;;;5027245;28;20029;-76
2022/06/20 09:07:40;;;;;;;9.50;2.83;;;;;;;;;;5023724;28;20033;-76
2022/06/20 09:10:18;;;;;;;14.55;3.85;;;;;;;;;;5025861;28;20038;-76
2022/06/20 09:12:45;;;;;;;12.25;3.72;;;;;;;;;;5022727;28;20030;-76
2022/06/20 09:15:17;;;;;;;10.05;3.20;;;;;;;;;;5025921;28;20044;-76
2022/06/20 09:17:43;;;;;;;14.75;3.60;;;;;;;;;;5022022;28;20030;-76
2022/06/20 09:20:17;;;;;;;15.43;3.47;;;;;;;;;;5028734;28;20083;-76
2022/06/20 09:22:53;;;;;;;18.90;4.28;;;;;;;;;;5026833;28;20036;-76
2022/06/20 09:25:22;;;;;;;20.77;4.20;;;;;;;;;;5020897;28;20041;-75
2022/06/20 09:27:56;;;;;;;16.10;3.42;;;;;;;;;;5023996;28;20129;-76
2022/06/20 09:30:42;;;;;;;13.05;3.17;;;;;;;;;;5023900;28;20057;-76
2022/06/20 09:33:14;;;;;;;11.05;3.42;;;;;;;;;;5021685;28;20395;-76
2022/06/20 09:36:10;;;;;;;15.25;4.10;;;;;;;;;;5025381;28;20036;-76
2022/06/20 09:38:36;;;;;;;8.43;3.15;;;;;;;;;;4989726;28;20141;-76
2022/06/20 09:41:04;;;;;;;8.77;3.50;;;;;;;;;;5026260;28;20108;-76
2022/06/20 09:43:39;;;;;;;16.20;3.60;;;;;;;;;;5022211;28;20057;-76
2022/06/20 09:46:05;;;;;;;16.08;3.40;;;;;;;;;;5021783;28;20067;-76
2022/06/20 09:48:31;;;;;;;14.70;3.05;;;;;;;;;;5023833;28;20030;-77
2022/06/20 09:51:09;;;;;;;13.85;3.60;;;;;;;;;;5023492;28;20037;-76
2022/06/20 09:53:55;;;;;;;14.13;3.40;;;;;;;;;;5022066;28;21555;-76
2022/06/20 09:56:21;;;;;;;19.55;4.38;;;;;;;;;;5021263;28;20026;-75
2022/06/20 09:59:10;;;;;;;15.98;3.30;;;;;;;;;;5022134;28;20033;-76
2022/06/20 10:01:39;;;;;;;12.88;3.60;;;;;;;;;;5016875;28;20036;-77
2022/06/20 10:04:17;;;;;;;14.80;3.53;;;;;;;;;;5030094;28;20033;-78
2022/06/20 10:06:49;;;;;;;16.33;3.85;;;;;;;;;;5022642;28;20697;-77
2022/06/20 10:09:30;;;;;;;12.15;3.22;;;;;;;;;;5021967;28;20147;-77
2022/06/20 10:12:02;;;;;;;11.93;3.05;;;;;;;;;;5017275;28;20030;-75
2022/06/20 10:14:55;;;;;;;13.18;2.67;;;;;;;;;;5018947;28;20026;-75
2022/06/20 10:17:39;;;;;;;15.48;3.45;;;;;;;;;;5020252;28;20068;-75
2022/06/20 10:20:11;;;;;;;12.65;3.17;;;;;;;;;;5020056;28;20034;-77
2022/06/20 10:23:03;;;;;;;11.63;2.92;;;;;;;;;;5018093;28;20056;-77
2022/06/20 10:25:37;;;;;;;14.00;3.42;;;;;;;;;;5022251;28;20033;-77
2022/06/20 10:28:11;;;;;;;10.38;2.53;;;;;;;;;;5017927;28;20116;-76
2022/06/20 10:30:48;;;;;;;12.32;2.78;;;;;;;;;;5019510;28;20143;-76
2022/06/20 10:33:14;;;;;;;13.48;2.95;;;;;;;;;;5024223;28;20116;-76
2022/06/20 10:35:50;;;;;;;13.35;2.92;;;;;;;;;;5022269;28;20061;-76
2022/06/20 10:38:22;;;;;;;10.93;2.63;;;;;;;;;;5011525;28;20030;-75
2022/06/20 10:40:58;;;;;;;14.85;3.22;;;;;;;;;;5023842;28;20033;-76
2022/06/20 10:43:24;;;;;;;14.05;3.42;;;;;;;;;;5022620;28;20045;-75
2022/06/20 10:45:56;;;;;;;11.63;2.92;;;;;;;;;;5023018;28;20411;-75
2022/06/20 10:48:21;;;;;;;;;;;;;;;;;;5015787;28;20411;-76
2022/06/20 10:50:47;;;;;;;13.65;3.08;;;;;;;;;;5025374;28;19951;-76
2022/06/20 10:53:26;;;;;;;14.57;3.38;;;;;;;;;;5022391;28;20026;-76
2022/06/20 10:56:03;;;;;;;10.30;3.25;;;;;;;;;;5022483;28;20037;-76
2022/06/20 10:58:29;;;;;;;11.60;2.95;;;;;;;;;;5021554;28;20088;-77
2022/06/20 11:00:59;;;;;;;13.02;2.75;;;;;;;;;;5027343;28;20578;-76
2022/06/20 11:03:45;;;;;;;15.02;3.22;;;;;;;;;;5022887;28;20103;-76
2022/06/20 11:06:30;;;;;;;13.00;3.13;;;;;;;;;;5019782;28;20041;-76
2022/06/20 11:09:02;;;;;;;12.75;2.75;;;;;;;;;;5022950;28;20506;-76
2022/06/20 11:11:28;;;;;;;14.75;3.30;;;;;;;;;;5025889;28;20697;-76
2022/06/20 11:14:04;;;;;;;14.15;3.13;;;;;;;;;;5022073;28;20057;-75
2022/06/20 11:16:30;;;;;;;11.45;3.13;;;;;;;;;;5019436;28;20022;-76
2022/06/20 11:18:59;;;;;;;9.93;3.22;;;;;;;;;;5017444;28;20040;-76
2022/06/20 11:21:48;;;;;;;11.43;2.80;;;;;;;;;;5023580;28;20022;-76
2022/06/20 11:24:33;;;;;;;18.55;4.00;;;;;;;;;;5013264;28;20037;-76
2022/06/20 11:27:17;;;;;;;12.05;3.03;;;;;;;;;;5016352;28;20073;-76
2022/06/20 11:29:46;;;;;;;9.18;3.00;;;;;;;;;;5018698;28;20037;-76
2022/06/20 11:32:45;;;;;;;11.70;3.47;;;;;;;;;;5028083;28;20442;-76
2022/06/20 11:35:18;;;;;;;10.27;3.22;;;;;;;;;;4997776;28;20839;-76
2022/06/20 11:38:13;;;;;;;17.05;2.90;;;;;;;;;;5018809;28;20075;-76
2022/06/20 11:40:58;;;;;;;9.45;2.63;;;;;;;;;;5011028;28;20052;-76
2022/06/20 11:43:30;;;;;;;13.65;3.45;;;;;;;;;;5019743;28;20030;-76
2022/06/20 11:46:15;;;;;;;11.70;2.70;;;;;;;;;;5016702;28;20025;-76
2022/06/20 11:48:50;;;;;;;14.18;2.97;;;;;;;;;;5024358;28;20072;-76
2022/06/20 11:51:21;;;;;;;10.35;3.00;;;;;;;;;;5022300;28;20084;-76
2022/06/20 11:53:53;;;;;;;12.10;3.08;;;;;;;;;;5019792;28;20046;-76
2022/06/20 11:56:31;;;;;;;17.27;3.03;;;;;;;;;;5021703;28;20112;-76
2022/06/20 11:58:57;;;;;;;16.50;3.20;;;;;;;;;;5018166;28;20040;-76
2022/06/20 12:01:30;;;;;;;16.38;2.83;;;;;;;;;;5024838;28;20029;-76
2022/06/20 12:04:00;;;;;;;10.60;3.05;;;;;;;;;;5015970;28;20571;-76
2022/06/20 12:06:32;;;;;;;17.88;3.40;;;;;;;;;;5018364;28;20026;-76
2022/06/20 12:09:13;;;;;;;9.93;2.70;;;;;;;;;;5025375;28;20052;-76
2022/06/20 12:11:46;;;;;;;15.00;3.03;;;;;;;;;;5016610;28;20053;-76
2022/06/20 12:14:12;;;;;;;12.02;2.55;;;;;;;;;;5027796;28;20040;-76
2022/06/20 12:17:07;;;;;;;9.70;2.72;;;;;;;;;;5026527;28;20026;-76
2022/06/20 12:25:43;;;;;;;12.90;3.83;;;;;;;;;;5025397;28;20056;-76
2022/06/20 12:28:18;;;;;;;10.15;2.80;;;;;;;;;;5021544;28;20060;-76
2022/06/20 12:30:52;;;;;;;16.45;3.05;;;;;;;;;;5023740;28;20499;-76
2022/06/20 12:33:18;;;;;;;10.77;2.92;;;;;;;;;;5024379;28;20063;-76
2022/06/20 12:35:46;;;;;;;18.52;3.13;;;;;;;;;;5027026;28;20100;-76
2022/06/20 12:38:12;;;;;;;12.65;3.13;;;;;;;;;;5022019;28;20049;-76
2022/06/20 12:41:10;;;;;;;11.43;2.92;;;;;;;;;;5028115;28;20799;-76
2022/06/20 12:43:49;;;;;;;10.90;3.03;;;;;;;;;;5017194;28;20056;-76
2022/06/20 12:46:21;;;;;;;11.20;3.63;;;;;;;;;;5021547;28;20052;-76
2022/06/20 12:48:54;;;;;;;15.25;3.00;;;;;;;;;;5030222;28;20061;-76
2022/06/20 12:51:26;;;;;;;10.02;2.88;;;;;;;;;;5019497;28;20065;-76
2022/06/20 12:53:52;;;;;;;11.25;3.22;;;;;;;;;;5018512;28;20083;-76
2022/06/20 12:56:37;;;;;;;10.15;2.83;;;;;;;;;;5026141;28;20368;-76
2022/06/20 12:59:21;;;;;;;13.80;3.17;;;;;;;;;;5025605;28;20099;-76
2022/06/20 13:01:51;;;;;;;11.05;3.20;;;;;;;;;;5027307;28;20064;-76
2022/06/20 13:04:26;;;;;;;15.50;2.80;;;;;;;;;;5028009;28;20037;-76
2022/06/20 13:06:52;;;;;;;11.57;3.20;;;;;;;;;;5018494;28;20372;-76
2022/06/20 13:09:24;;;;;;;21.98;3.50;;;;;;;;;;5028286;28;20037;-76
2022/06/20 13:12:09;;;;;;;12.27;2.25;;;;;;;;;;5020073;28;20555;-75
2022/06/20 13:14:38;;;;;;;13.35;2.97;;;;;;;;;;5023528;28;20060;-76
2022/06/20 13:17:16;;;;;;;8.68;2.45;;;;;;;;;;5026082;28;20027;-76
2022/06/20 13:19:54;;;;;;;13.80;2.92;;;;;;;;;;5028720;28;20072;-76
2022/06/20 13:22:24;;;;;;;14.95;2.78;;;;;;;;;;5025210;28;20034;-77
2022/06/20 13:25:14;;;;;;;9.40;2.70;;;;;;;;;;5025116;28;20355;-76
2022/06/20 13:27:40;;;;;;;15.75;3.00;;;;;;;;;;5024094;28;20060;-76
2022/06/20 13:30:14;;;;;;;17.20;2.88;;;;;;;;;;5025553;28;20053;-77
2022/06/20 13:32:44;;;;;;;11.82;3.08;;;;;;;;;;5024062;28;20104;-76
2022/06/20 13:35:24;;;;;;;12.63;2.58;;;;;;;;;;5025375;28;20061;-76
2022/06/20 13:38:25;;;;;;;13.73;2.45;;;;;;;;;;5023804;28;20057;-76
2022/06/20 13:41:02;;;;;;;8.02;2.50;;;;;;;;;;5004661;28;20045;-76
2022/06/20 13:43:28;;;;;;;15.20;2.40;;;;;;;;;;5019719;28;20046;-76
2022/06/20 13:46:02;;;;;;;12.10;2.63;;;;;;;;;;5021103;28;20455;-76
2022/06/20 13:48:34;;;;;;;9.77;2.85;;;;;;;;;;5022312;28;20129;-76
2022/06/20 13:51:18;;;;;;;12.75;2.30;;;;;;;;;;5029692;28;20033;-77
2022/06/20 13:53:50;;;;;;;15.45;2.83;;;;;;;;;;5028829;28;20065;-76
2022/06/20 13:56:25;;;;;;;13.70;3.03;;;;;;;;;;5023231;28;20128;-76
2022/06/20 13:59:09;;;;;;;10.82;2.92;;;;;;;;;;5019656;28;20071;-76
2022/06/20 14:01:44;;;;;;;13.63;3.08;;;;;;;;;;5021534;28;20120;-76
2022/06/20 14:04:15;;;;;;;11.05;2.75;;;;;;;;;;5022999;28;20476;-75
2022/06/20 14:06:44;;;;;;;13.27;2.33;;;;;;;;;;5022213;28;20026;-76
2022/06/20 14:09:16;;;;;;;11.50;2.70;;;;;;;;;;5026760;28;20029;-76
2022/06/20 14:11:44;;;;;;;10.57;3.58;;;;;;;;;;5022787;28;20033;-77
2022/06/20 14:14:32;;;;;;;14.07;2.88;;;;;;;;;;5026454;28;20025;-76
2022/06/20 14:17:18;;;;;;;9.27;2.63;;;;;;;;;;5024262;28;20041;-76
2022/06/20 14:19:46;;;;;;;12.27;2.72;;;;;;;;;;5017403;28;20041;-77
2022/06/20 14:22:34;;;;;;;15.18;3.10;;;;;;;;;;5021444;28;20087;-76
2022/06/20 14:25:01;;;;;;;12.30;2.78;;;;;;;;;;5024026;28;20030;-76
2022/06/20 14:27:29;;;;;;;12.55;2.90;;;;;;;;;;5018029;28;20076;-77
2022/06/20 14:29:58;;;;;;;12.40;2.63;;;;;;;;;;5023719;28;20046;-77
2022/06/20 14:32:31;;;;;;;10.75;2.95;;;;;;;;;;5018736;28;20121;-76
2022/06/20 14:35:20;;;;;;;10.35;2.42;;;;;;;;;;5021199;28;20033;-76
2022/06/20 14:38:13;;;;;;;9.75;2.40;;;;;;;;;;5022519;28;20034;-76
2022/06/20 14:40:42;;;;;;;9.73;2.47;;;;;;;;;;5016538;28;20064;-77
2022/06/20 14:43:14;;;;;;;12.63;2.60;;;;;;;;;;5014538;28;20526;-76
2022/06/20 14:45:48;;;;;;;14.77;3.13;;;;;;;;;;5017331;28;20037;-76
2022/06/20 14:48:14;;;;;;;13.93;3.30;;;;;;;;;;5016778;28;20108;-77
2022/06/20 14:50:47;;;;;;;10.00;3.05;;;;;;;;;;5022124;28;20100;-76
2022/06/20 14:53:19;;;;;;;12.70;2.58;;;;;;;;;;5014003;28;20025;-76
2022/06/20 14:55:51;;;;;;;9.52;3.17;;;;;;;;;;5021528;28;20029;-76
2022/06/20 14:58:25;;;;;;;13.52;3.03;;;;;;;;;;5021812;28;20297;-76
2022/06/20 15:01:06;;;;;;;10.05;2.65;;;;;;;;;;5023446;28;20035;-76
2022/06/20 15:03:39;;;;;;;13.02;3.10;;;;;;;;;;5024359;28;20052;-76
2022/06/20 15:06:19;;;;;;;11.23;2.80;;;;;;;;;;5016999;28;20109;-76
2022/06/20 15:08:48;;;;;;;14.30;3.38;;;;;;;;;;5022445;28;20038;-76
2022/06/20 15:11:23;;;;;;;14.30;3.13;;;;;;;;;;5018143;28;20034;-76
2022/06/20 15:13:52;;;;;;;16.63;2.38;;;;;;;;;;5019982;28;20041;-76
2022/06/20 15:16:21;;;;;;;8.80;2.80;;;;;;;;;;5023104;28;20463;-77
2022/06/20 15:18:49;;;;;;;13.48;2.95;;;;;;;;;;5019072;28;20056;-76
2022/06/20 15:21:18;;;;;;;10.82;2.92;;;;;;;;;;5024157;28;20033;-76